sensor_id;sensor_type;location;lat;lon;timestamp;P1;durP1;ratioP1;P2;durP2;ratioP2
44664;SDS011;30382;48.802;9.388;2022-12-07T00:01:59;7.63;;;6.80;;
44664;SDS011;30382;48.802;9.388;2022-12-07T00:04:44;10.80;;;7.30;;
44664;SDS011;30382;48.802;9.388;2022-12-07T00:07:28;9.67;;;6.13;;
44664;SDS011;30382;48.802;9.388;2022-12-07T00:10:13;8.50;;;7.60;;
44664;SDS011;30382;48.802;9.388;2022-12-07T00:12:57;10.27;;;7.20;;
44664;SDS011;30382;48.802;9.388;2022-12-07T00:15:41;9.30;;;6.87;;
44664;SDS011;30382;48.802;9.388;2022-12-07T00:18:25;12.40;;;8.13;;
44664;SDS011;30382;48.802;9.388;2022-12-07T00:23:57;8.00;;;6.90;;
44664;SDS011;30382;48.802;9.388;2022-12-07T00:26:42;7.60;;;6.70;;
44664;SDS011;30382;48.802;9.388;2022-12-07T00:29:27;8.73;;;7.17;;
44664;SDS011;30382;48.802;9.388;2022-12-07T00:32:11;9.47;;;7.10;;
44664;SDS011;30382;48.802;9.388;2022-12-07T00:34:55;8.80;;;6.53;;
44664;SDS011;30382;48.802;9.388;2022-12-07T00:37:39;7.30;;;6.47;;
44664;SDS011;30382;48.802;9.388;2022-12-07T00:40:24;8.73;;;6.27;;
44664;SDS011;30382;48.802;9.388;2022-12-07T00:43:08;9.77;;;7.83;;
44664;SDS011;30382;48.802;9.388;2022-12-07T00:45:52;8.00;;;7.00;;
44664;SDS011;30382;48.802;9.388;2022-12-07T00:48:37;8.23;;;6.80;;
44664;SDS011;30382;48.802;9.388;2022-12-07T00:51:22;7.63;;;6.67;;
44664;SDS011;30382;48.802;9.388;2022-12-07T00:54:07;8.93;;;6.93;;
44664;SDS011;30382;48.802;9.388;2022-12-07T00:56:51;8.27;;;6.27;;
44664;SDS011;30382;48.802;9.388;2022-12-07T00:59:35;10.23;;;6.80;;
44664;SDS011;30382;48.802;9.388;2022-12-07T01:02:20;7.67;;;6.60;;
44664;SDS011;30382;48.802;9.388;2022-12-07T01:05:04;11.03;;;7.47;;
44664;SDS011;30382;48.802;9.388;2022-12-07T01:07:48;8.50;;;7.70;;
44664;SDS011;30382;48.802;9.388;2022-12-07T01:10:33;8.97;;;6.50;;
44664;SDS011;30382;48.802;9.388;2022-12-07T01:13:17;9.77;;;7.10;;
44664;SDS011;30382;48.802;9.388;2022-12-07T01:16:03;8.50;;;6.77;;
44664;SDS011;30382;48.802;9.388;2022-12-07T01:18:48;8.73;;;7.00;;
44664;SDS011;30382;48.802;9.388;2022-12-07T01:21:33;10.40;;;7.30;;
44664;SDS011;30382;48.802;9.388;2022-12-07T01:24:21;12.13;;;8.33;;
44664;SDS011;30382;48.802;9.388;2022-12-07T01:27:05;10.13;;;6.83;;
44664;SDS011;30382;48.802;9.388;2022-12-07T01:29:50;14.70;;;6.73;;
44664;SDS011;30382;48.802;9.388;2022-12-07T01:32:34;7.47;;;6.77;;
44664;SDS011;30382;48.802;9.388;2022-12-07T01:35:19;10.17;;;8.00;;
44664;SDS011;30382;48.802;9.388;2022-12-07T01:38:03;7.93;;;7.23;;
44664;SDS011;30382;48.802;9.388;2022-12-07T01:40:53;8.70;;;6.93;;
44664;SDS011;30382;48.802;9.388;2022-12-07T01:44:06;9.20;;;7.93;;
44664;SDS011;30382;48.802;9.388;2022-12-07T01:46:46;7.90;;;6.93;;
44664;SDS011;30382;48.802;9.388;2022-12-07T01:52:19;7.13;;;6.23;;
44664;SDS011;30382;48.802;9.388;2022-12-07T01:55:04;9.63;;;7.27;;
44664;SDS011;30382;48.802;9.388;2022-12-07T01:57:50;9.30;;;6.30;;
44664;SDS011;30382;48.802;9.388;2022-12-07T02:00:36;9.07;;;7.17;;
44664;SDS011;30382;48.802;9.388;2022-12-07T02:03:42;8.20;;;6.50;;
44664;SDS011;30382;48.802;9.388;2022-12-07T02:06:24;8.50;;;7.00;;
44664;SDS011;30382;48.802;9.388;2022-12-07T02:09:09;8.57;;;6.93;;
44664;SDS011;30382;48.802;9.388;2022-12-07T02:11:53;9.60;;;6.93;;
44664;SDS011;30382;48.802;9.388;2022-12-07T02:14:38;11.00;;;7.90;;
44664;SDS011;30382;48.802;9.388;2022-12-07T02:17:32;11.30;;;8.07;;
44664;SDS011;30382;48.802;9.388;2022-12-07T02:20:23;7.60;;;6.80;;
44664;SDS011;30382;48.802;9.388;2022-12-07T02:31:46;8.90;;;6.97;;
44664;SDS011;30382;48.802;9.388;2022-12-07T02:40:07;9.43;;;7.10;;
44664;SDS011;30382;48.802;9.388;2022-12-07T02:43:02;9.27;;;7.07;;
44664;SDS011;30382;48.802;9.388;2022-12-07T02:45:47;10.17;;;7.60;;
44664;SDS011;30382;48.802;9.388;2022-12-07T02:48:32;8.73;;;6.37;;
44664;SDS011;30382;48.802;9.388;2022-12-07T02:51:17;10.30;;;7.20;;
44664;SDS011;30382;48.802;9.388;2022-12-07T02:54:02;10.03;;;7.00;;
44664;SDS011;30382;48.802;9.388;2022-12-07T03:02:39;10.77;;;8.17;;
44664;SDS011;30382;48.802;9.388;2022-12-07T03:09:32;12.23;;;7.90;;
44664;SDS011;30382;48.802;9.388;2022-12-07T03:11:45;9.23;;;7.20;;
44664;SDS011;30382;48.802;9.388;2022-12-07T03:14:31;9.77;;;8.33;;
44664;SDS011;30382;48.802;9.388;2022-12-07T03:17:21;10.97;;;7.50;;
44664;SDS011;30382;48.802;9.388;2022-12-07T03:20:09;8.57;;;6.77;;
44664;SDS011;30382;48.802;9.388;2022-12-07T03:22:54;9.70;;;8.07;;
44664;SDS011;30382;48.802;9.388;2022-12-07T03:25:39;10.00;;;7.83;;
44664;SDS011;30382;48.802;9.388;2022-12-07T03:28:27;11.07;;;7.73;;
44664;SDS011;30382;48.802;9.388;2022-12-07T03:31:14;9.53;;;6.60;;
44664;SDS011;30382;48.802;9.388;2022-12-07T03:34:09;10.33;;;8.00;;
44664;SDS011;30382;48.802;9.388;2022-12-07T03:36:56;12.00;;;7.80;;
44664;SDS011;30382;48.802;9.388;2022-12-07T03:39:45;10.13;;;7.40;;
44664;SDS011;30382;48.802;9.388;2022-12-07T03:42:30;10.30;;;7.93;;
44664;SDS011;30382;48.802;9.388;2022-12-07T03:45:16;10.50;;;7.23;;
44664;SDS011;30382;48.802;9.388;2022-12-07T03:51:06;10.73;;;7.47;;
44664;SDS011;30382;48.802;9.388;2022-12-07T03:56:56;10.77;;;7.90;;
44664;SDS011;30382;48.802;9.388;2022-12-07T03:59:42;11.67;;;7.43;;
44664;SDS011;30382;48.802;9.388;2022-12-07T04:02:27;8.50;;;6.63;;
44664;SDS011;30382;48.802;9.388;2022-12-07T04:05:12;11.87;;;8.50;;
44664;SDS011;30382;48.802;9.388;2022-12-07T04:07:56;8.87;;;7.13;;
44664;SDS011;30382;48.802;9.388;2022-12-07T04:10:40;10.53;;;7.80;;
44664;SDS011;30382;48.802;9.388;2022-12-07T04:13:25;15.20;;;8.47;;
44664;SDS011;30382;48.802;9.388;2022-12-07T04:16:09;11.90;;;8.47;;
44664;SDS011;30382;48.802;9.388;2022-12-07T04:18:53;11.93;;;7.17;;
44664;SDS011;30382;48.802;9.388;2022-12-07T04:21:38;10.10;;;7.13;;
44664;SDS011;30382;48.802;9.388;2022-12-07T04:24:22;11.37;;;9.07;;
44664;SDS011;30382;48.802;9.388;2022-12-07T04:27:07;10.40;;;7.70;;
44664;SDS011;30382;48.802;9.388;2022-12-07T04:29:51;12.80;;;8.80;;
44664;SDS011;30382;48.802;9.388;2022-12-07T04:32:35;13.50;;;9.17;;
44664;SDS011;30382;48.802;9.388;2022-12-07T04:35:19;13.30;;;8.87;;
44664;SDS011;30382;48.802;9.388;2022-12-07T04:38:04;13.73;;;9.43;;
44664;SDS011;30382;48.802;9.388;2022-12-07T04:40:48;14.47;;;8.70;;
44664;SDS011;30382;48.802;9.388;2022-12-07T04:43:33;13.17;;;8.60;;
44664;SDS011;30382;48.802;9.388;2022-12-07T04:46:17;14.90;;;10.90;;
44664;SDS011;30382;48.802;9.388;2022-12-07T04:49:02;12.50;;;8.67;;
44664;SDS011;30382;48.802;9.388;2022-12-07T04:51:46;14.30;;;8.73;;
44664;SDS011;30382;48.802;9.388;2022-12-07T04:54:30;15.07;;;9.00;;
44664;SDS011;30382;48.802;9.388;2022-12-07T04:57:14;13.10;;;8.73;;
44664;SDS011;30382;48.802;9.388;2022-12-07T04:59:59;13.67;;;9.20;;
44664;SDS011;30382;48.802;9.388;2022-12-07T05:02:43;15.83;;;9.47;;
44664;SDS011;30382;48.802;9.388;2022-12-07T05:05:27;15.67;;;10.67;;
44664;SDS011;30382;48.802;9.388;2022-12-07T05:08:12;13.30;;;8.40;;
44664;SDS011;30382;48.802;9.388;2022-12-07T05:10:56;12.07;;;8.90;;
44664;SDS011;30382;48.802;9.388;2022-12-07T05:13:40;10.43;;;8.17;;
44664;SDS011;30382;48.802;9.388;2022-12-07T05:16:25;18.10;;;9.70;;
44664;SDS011;30382;48.802;9.388;2022-12-07T05:19:09;14.00;;;8.70;;
44664;SDS011;30382;48.802;9.388;2022-12-07T05:21:53;13.73;;;9.30;;
44664;SDS011;30382;48.802;9.388;2022-12-07T05:24:38;13.83;;;8.53;;
44664;SDS011;30382;48.802;9.388;2022-12-07T05:27:22;14.90;;;8.70;;
44664;SDS011;30382;48.802;9.388;2022-12-07T05:30:06;18.83;;;9.30;;
44664;SDS011;30382;48.802;9.388;2022-12-07T05:32:51;14.70;;;8.83;;
44664;SDS011;30382;48.802;9.388;2022-12-07T05:35:35;13.80;;;9.00;;
44664;SDS011;30382;48.802;9.388;2022-12-07T05:38:21;15.97;;;10.10;;
44664;SDS011;30382;48.802;9.388;2022-12-07T05:41:06;15.93;;;11.00;;
44664;SDS011;30382;48.802;9.388;2022-12-07T05:43:50;12.77;;;9.10;;
44664;SDS011;30382;48.802;9.388;2022-12-07T05:46:35;14.53;;;9.97;;
44664;SDS011;30382;48.802;9.388;2022-12-07T05:49:19;19.87;;;10.57;;
44664;SDS011;30382;48.802;9.388;2022-12-07T05:52:03;17.27;;;8.63;;
44664;SDS011;30382;48.802;9.388;2022-12-07T05:54:48;18.83;;;8.83;;
44664;SDS011;30382;48.802;9.388;2022-12-07T05:57:32;14.23;;;9.73;;
44664;SDS011;30382;48.802;9.388;2022-12-07T06:00:17;14.23;;;9.00;;
44664;SDS011;30382;48.802;9.388;2022-12-07T06:03:01;13.20;;;9.00;;
44664;SDS011;30382;48.802;9.388;2022-12-07T06:05:45;13.27;;;9.37;;
44664;SDS011;30382;48.802;9.388;2022-12-07T06:08:30;16.27;;;8.00;;
44664;SDS011;30382;48.802;9.388;2022-12-07T06:11:14;12.03;;;7.53;;
44664;SDS011;30382;48.802;9.388;2022-12-07T06:14:17;13.63;;;8.70;;
44664;SDS011;30382;48.802;9.388;2022-12-07T06:17:02;10.80;;;8.83;;
44664;SDS011;30382;48.802;9.388;2022-12-07T06:19:46;15.30;;;9.37;;
44664;SDS011;30382;48.802;9.388;2022-12-07T06:22:30;15.57;;;10.53;;
44664;SDS011;30382;48.802;9.388;2022-12-07T06:25:15;15.63;;;11.10;;
44664;SDS011;30382;48.802;9.388;2022-12-07T06:27:59;12.50;;;9.70;;
44664;SDS011;30382;48.802;9.388;2022-12-07T06:30:43;18.03;;;10.40;;
44664;SDS011;30382;48.802;9.388;2022-12-07T06:33:28;15.80;;;10.47;;
44664;SDS011;30382;48.802;9.388;2022-12-07T06:36:12;16.27;;;10.97;;
44664;SDS011;30382;48.802;9.388;2022-12-07T06:38:57;14.67;;;10.43;;
44664;SDS011;30382;48.802;9.388;2022-12-07T06:41:41;17.03;;;10.27;;
44664;SDS011;30382;48.802;9.388;2022-12-07T06:44:25;28.40;;;11.40;;
44664;SDS011;30382;48.802;9.388;2022-12-07T06:47:10;17.00;;;9.77;;
44664;SDS011;30382;48.802;9.388;2022-12-07T06:49:55;13.53;;;9.70;;
44664;SDS011;30382;48.802;9.388;2022-12-07T06:52:39;14.03;;;9.97;;
44664;SDS011;30382;48.802;9.388;2022-12-07T06:55:23;16.67;;;10.50;;
44664;SDS011;30382;48.802;9.388;2022-12-07T06:58:08;25.57;;;11.17;;
44664;SDS011;30382;48.802;9.388;2022-12-07T07:00:52;18.90;;;11.10;;
44664;SDS011;30382;48.802;9.388;2022-12-07T07:03:37;13.20;;;10.57;;
44664;SDS011;30382;48.802;9.388;2022-12-07T07:06:21;15.87;;;11.43;;
44664;SDS011;30382;48.802;9.388;2022-12-07T07:09:05;12.27;;;8.77;;
44664;SDS011;30382;48.802;9.388;2022-12-07T07:11:50;14.00;;;9.37;;
44664;SDS011;30382;48.802;9.388;2022-12-07T07:14:34;12.77;;;8.90;;
44664;SDS011;30382;48.802;9.388;2022-12-07T07:17:18;13.10;;;8.90;;
44664;SDS011;30382;48.802;9.388;2022-12-07T07:20:03;11.93;;;9.40;;
44664;SDS011;30382;48.802;9.388;2022-12-07T07:22:49;15.50;;;10.07;;
44664;SDS011;30382;48.802;9.388;2022-12-07T07:25:34;17.10;;;9.23;;
44664;SDS011;30382;48.802;9.388;2022-12-07T07:28:18;14.27;;;10.13;;
44664;SDS011;30382;48.802;9.388;2022-12-07T07:31:02;12.67;;;9.47;;
44664;SDS011;30382;48.802;9.388;2022-12-07T07:33:47;15.37;;;10.03;;
44664;SDS011;30382;48.802;9.388;2022-12-07T07:36:32;16.73;;;11.47;;
44664;SDS011;30382;48.802;9.388;2022-12-07T07:39:16;13.33;;;10.67;;
44664;SDS011;30382;48.802;9.388;2022-12-07T07:42:01;17.67;;;11.77;;
44664;SDS011;30382;48.802;9.388;2022-12-07T07:44:45;14.10;;;10.20;;
44664;SDS011;30382;48.802;9.388;2022-12-07T07:47:30;14.67;;;10.07;;
44664;SDS011;30382;48.802;9.388;2022-12-07T07:50:14;14.90;;;9.90;;
44664;SDS011;30382;48.802;9.388;2022-12-07T07:52:59;23.80;;;11.47;;
44664;SDS011;30382;48.802;9.388;2022-12-07T07:55:50;20.20;;;11.80;;
44664;SDS011;30382;48.802;9.388;2022-12-07T07:58:35;15.50;;;11.10;;
44664;SDS011;30382;48.802;9.388;2022-12-07T08:01:20;14.90;;;10.40;;
44664;SDS011;30382;48.802;9.388;2022-12-07T08:04:04;21.33;;;11.10;;
44664;SDS011;30382;48.802;9.388;2022-12-07T08:06:48;20.17;;;10.37;;
44664;SDS011;30382;48.802;9.388;2022-12-07T08:09:33;12.20;;;8.40;;
44664;SDS011;30382;48.802;9.388;2022-12-07T08:12:17;11.17;;;8.10;;
44664;SDS011;30382;48.802;9.388;2022-12-07T08:15:01;17.27;;;10.30;;
44664;SDS011;30382;48.802;9.388;2022-12-07T08:17:46;21.33;;;11.77;;
44664;SDS011;30382;48.802;9.388;2022-12-07T08:20:30;17.53;;;10.00;;
44664;SDS011;30382;48.802;9.388;2022-12-07T08:23:15;22.53;;;12.80;;
44664;SDS011;30382;48.802;9.388;2022-12-07T08:26:00;17.53;;;11.20;;
44664;SDS011;30382;48.802;9.388;2022-12-07T08:28:44;20.40;;;13.17;;
44664;SDS011;30382;48.802;9.388;2022-12-07T08:31:29;15.40;;;10.60;;
44664;SDS011;30382;48.802;9.388;2022-12-07T08:34:14;13.40;;;10.60;;
44664;SDS011;30382;48.802;9.388;2022-12-07T08:36:58;12.00;;;8.73;;
44664;SDS011;30382;48.802;9.388;2022-12-07T08:39:42;14.80;;;9.50;;
44664;SDS011;30382;48.802;9.388;2022-12-07T08:42:26;15.63;;;10.47;;
44664;SDS011;30382;48.802;9.388;2022-12-07T08:45:14;12.80;;;9.73;;
44664;SDS011;30382;48.802;9.388;2022-12-07T08:48:03;15.33;;;9.17;;
44664;SDS011;30382;48.802;9.388;2022-12-07T08:50:50;10.33;;;8.70;;
44664;SDS011;30382;48.802;9.388;2022-12-07T08:53:35;15.10;;;9.83;;
44664;SDS011;30382;48.802;9.388;2022-12-07T08:56:21;14.00;;;9.23;;
44664;SDS011;30382;48.802;9.388;2022-12-07T08:59:05;12.30;;;9.00;;
44664;SDS011;30382;48.802;9.388;2022-12-07T09:01:49;14.03;;;9.10;;
44664;SDS011;30382;48.802;9.388;2022-12-07T09:04:33;9.93;;;8.63;;
44664;SDS011;30382;48.802;9.388;2022-12-07T09:07:17;13.20;;;8.97;;
44664;SDS011;30382;48.802;9.388;2022-12-07T09:10:02;12.43;;;8.10;;
44664;SDS011;30382;48.802;9.388;2022-12-07T09:12:47;11.93;;;9.47;;
44664;SDS011;30382;48.802;9.388;2022-12-07T09:15:31;14.97;;;7.47;;
44664;SDS011;30382;48.802;9.388;2022-12-07T09:18:15;12.30;;;7.73;;
44664;SDS011;30382;48.802;9.388;2022-12-07T09:20:59;8.53;;;7.50;;
44664;SDS011;30382;48.802;9.388;2022-12-07T09:23:44;6.30;;;4.90;;
44664;SDS011;30382;48.802;9.388;2022-12-07T09:26:28;10.73;;;6.50;;
44664;SDS011;30382;48.802;9.388;2022-12-07T09:29:12;11.57;;;8.27;;
44664;SDS011;30382;48.802;9.388;2022-12-07T09:31:56;6.70;;;6.00;;
44664;SDS011;30382;48.802;9.388;2022-12-07T09:34:41;8.13;;;5.83;;
44664;SDS011;30382;48.802;9.388;2022-12-07T09:37:25;12.87;;;6.40;;
44664;SDS011;30382;48.802;9.388;2022-12-07T09:40:09;9.70;;;6.13;;
44664;SDS011;30382;48.802;9.388;2022-12-07T09:42:54;10.63;;;5.40;;
44664;SDS011;30382;48.802;9.388;2022-12-07T09:45:38;6.70;;;5.40;;
44664;SDS011;30382;48.802;9.388;2022-12-07T09:48:26;6.77;;;5.83;;
44664;SDS011;30382;48.802;9.388;2022-12-07T09:51:22;7.60;;;5.53;;
44664;SDS011;30382;48.802;9.388;2022-12-07T09:54:07;8.30;;;6.27;;
44664;SDS011;30382;48.802;9.388;2022-12-07T09:56:52;8.93;;;6.20;;
44664;SDS011;30382;48.802;9.388;2022-12-07T09:59:37;9.63;;;6.43;;
44664;SDS011;30382;48.802;9.388;2022-12-07T10:02:23;6.37;;;5.43;;
44664;SDS011;30382;48.802;9.388;2022-12-07T10:05:18;7.10;;;5.80;;
44664;SDS011;30382;48.802;9.388;2022-12-07T10:08:04;9.80;;;6.83;;
44664;SDS011;30382;48.802;9.388;2022-12-07T10:10:53;10.40;;;5.97;;
44664;SDS011;30382;48.802;9.388;2022-12-07T10:22:15;9.57;;;5.80;;
44664;SDS011;30382;48.802;9.388;2022-12-07T10:25:07;6.37;;;4.90;;
44664;SDS011;30382;48.802;9.388;2022-12-07T10:27:59;7.23;;;4.97;;
44664;SDS011;30382;48.802;9.388;2022-12-07T10:30:48;5.80;;;5.20;;
44664;SDS011;30382;48.802;9.388;2022-12-07T10:33:37;7.67;;;5.37;;
44664;SDS011;30382;48.802;9.388;2022-12-07T10:36:23;6.47;;;5.03;;
44664;SDS011;30382;48.802;9.388;2022-12-07T10:39:15;6.97;;;5.10;;
44664;SDS011;30382;48.802;9.388;2022-12-07T10:42:01;7.63;;;5.30;;
44664;SDS011;30382;48.802;9.388;2022-12-07T10:44:45;8.57;;;5.60;;
44664;SDS011;30382;48.802;9.388;2022-12-07T10:50:27;6.87;;;4.93;;
44664;SDS011;30382;48.802;9.388;2022-12-07T11:02:21;9.47;;;5.70;;
44664;SDS011;30382;48.802;9.388;2022-12-07T11:05:17;14.73;;;5.63;;
44664;SDS011;30382;48.802;9.388;2022-12-07T11:20:35;6.10;;;4.70;;
44664;SDS011;30382;48.802;9.388;2022-12-07T11:26:00;6.37;;;4.37;;
44664;SDS011;30382;48.802;9.388;2022-12-07T11:28:57;7.30;;;6.60;;
44664;SDS011;30382;48.802;9.388;2022-12-07T11:31:52;6.70;;;4.73;;
44664;SDS011;30382;48.802;9.388;2022-12-07T11:37:33;6.10;;;4.60;;
44664;SDS011;30382;48.802;9.388;2022-12-07T11:45:52;7.50;;;5.70;;
44664;SDS011;30382;48.802;9.388;2022-12-07T11:48:50;4.77;;;3.83;;
44664;SDS011;30382;48.802;9.388;2022-12-07T11:51:37;6.40;;;4.70;;
44664;SDS011;30382;48.802;9.388;2022-12-07T11:54:23;7.10;;;4.67;;
44664;SDS011;30382;48.802;9.388;2022-12-07T11:57:19;6.37;;;4.87;;
44664;SDS011;30382;48.802;9.388;2022-12-07T12:00:06;5.30;;;4.60;;
44664;SDS011;30382;48.802;9.388;2022-12-07T12:02:57;6.83;;;4.43;;
44664;SDS011;30382;48.802;9.388;2022-12-07T12:05:43;8.67;;;4.77;;
44664;SDS011;30382;48.802;9.388;2022-12-07T12:08:28;5.20;;;3.87;;
44664;SDS011;30382;48.802;9.388;2022-12-07T12:22:37;5.60;;;5.10;;
44664;SDS011;30382;48.802;9.388;2022-12-07T12:25:28;7.00;;;4.63;;
44664;SDS011;30382;48.802;9.388;2022-12-07T12:28:22;8.37;;;4.90;;
44664;SDS011;30382;48.802;9.388;2022-12-07T12:34:03;8.83;;;6.00;;
44664;SDS011;30382;48.802;9.388;2022-12-07T12:36:47;8.47;;;5.73;;
44664;SDS011;30382;48.802;9.388;2022-12-07T12:39:32;9.40;;;6.70;;
44664;SDS011;30382;48.802;9.388;2022-12-07T12:42:19;11.20;;;5.87;;
44664;SDS011;30382;48.802;9.388;2022-12-07T12:45:18;12.60;;;7.93;;
44664;SDS011;30382;48.802;9.388;2022-12-07T12:50:47;11.80;;;6.83;;
44664;SDS011;30382;48.802;9.388;2022-12-07T12:53:32;10.13;;;7.83;;
44664;SDS011;30382;48.802;9.388;2022-12-07T12:59:34;9.67;;;7.10;;
44664;SDS011;30382;48.802;9.388;2022-12-07T13:07:51;11.30;;;7.40;;
44664;SDS011;30382;48.802;9.388;2022-12-07T13:10:37;8.80;;;6.60;;
44664;SDS011;30382;48.802;9.388;2022-12-07T13:18:50;10.40;;;7.50;;
44664;SDS011;30382;48.802;9.388;2022-12-07T13:21:44;13.40;;;8.07;;
44664;SDS011;30382;48.802;9.388;2022-12-07T13:24:28;11.03;;;7.30;;
44664;SDS011;30382;48.802;9.388;2022-12-07T13:27:15;12.80;;;8.30;;
44664;SDS011;30382;48.802;9.388;2022-12-07T13:30:00;14.73;;;10.87;;
44664;SDS011;30382;48.802;9.388;2022-12-07T13:32:52;19.60;;;10.17;;
44664;SDS011;30382;48.802;9.388;2022-12-07T13:35:37;15.30;;;9.40;;
44664;SDS011;30382;48.802;9.388;2022-12-07T13:38:34;17.43;;;10.00;;
44664;SDS011;30382;48.802;9.388;2022-12-07T13:41:21;8.77;;;6.70;;
44664;SDS011;30382;48.802;9.388;2022-12-07T13:44:09;10.70;;;7.10;;
44664;SDS011;30382;48.802;9.388;2022-12-07T13:47:11;23.27;;;14.37;;
44664;SDS011;30382;48.802;9.388;2022-12-07T13:49:56;16.73;;;10.33;;
44664;SDS011;30382;48.802;9.388;2022-12-07T13:52:44;18.10;;;8.60;;
44664;SDS011;30382;48.802;9.388;2022-12-07T13:55:29;11.07;;;7.27;;
44664;SDS011;30382;48.802;9.388;2022-12-07T13:58:13;8.40;;;7.37;;
44664;SDS011;30382;48.802;9.388;2022-12-07T14:00:57;10.93;;;9.53;;
44664;SDS011;30382;48.802;9.388;2022-12-07T14:03:42;10.60;;;8.33;;
44664;SDS011;30382;48.802;9.388;2022-12-07T14:06:26;12.63;;;7.57;;
44664;SDS011;30382;48.802;9.388;2022-12-07T14:09:19;11.57;;;7.83;;
44664;SDS011;30382;48.802;9.388;2022-12-07T14:12:05;7.37;;;6.40;;
44664;SDS011;30382;48.802;9.388;2022-12-07T14:14:49;10.10;;;7.67;;
44664;SDS011;30382;48.802;9.388;2022-12-07T14:17:34;11.03;;;6.90;;
44664;SDS011;30382;48.802;9.388;2022-12-07T14:20:35;10.13;;;6.50;;
44664;SDS011;30382;48.802;9.388;2022-12-07T14:23:22;12.83;;;8.77;;
44664;SDS011;30382;48.802;9.388;2022-12-07T14:26:11;16.50;;;10.20;;
44664;SDS011;30382;48.802;9.388;2022-12-07T14:29:18;11.33;;;8.73;;
44664;SDS011;30382;48.802;9.388;2022-12-07T14:32:11;18.50;;;9.80;;
44664;SDS011;30382;48.802;9.388;2022-12-07T14:35:12;13.13;;;8.87;;
44664;SDS011;30382;48.802;9.388;2022-12-07T14:37:56;15.00;;;9.30;;
44664;SDS011;30382;48.802;9.388;2022-12-07T14:40:40;8.80;;;7.90;;
44664;SDS011;30382;48.802;9.388;2022-12-07T14:43:28;12.03;;;6.83;;
44664;SDS011;30382;48.802;9.388;2022-12-07T14:46:13;12.30;;;7.37;;
44664;SDS011;30382;48.802;9.388;2022-12-07T14:48:57;8.90;;;7.60;;
44664;SDS011;30382;48.802;9.388;2022-12-07T14:51:42;10.87;;;8.70;;
44664;SDS011;30382;48.802;9.388;2022-12-07T14:54:29;16.80;;;8.20;;
44664;SDS011;30382;48.802;9.388;2022-12-07T14:57:14;10.20;;;7.77;;
44664;SDS011;30382;48.802;9.388;2022-12-07T14:59:59;11.20;;;8.50;;
44664;SDS011;30382;48.802;9.388;2022-12-07T15:02:44;12.20;;;7.67;;
44664;SDS011;30382;48.802;9.388;2022-12-07T15:05:28;13.53;;;8.50;;
44664;SDS011;30382;48.802;9.388;2022-12-07T15:08:13;15.80;;;8.80;;
44664;SDS011;30382;48.802;9.388;2022-12-07T15:10:58;20.30;;;9.63;;
44664;SDS011;30382;48.802;9.388;2022-12-07T15:13:42;14.13;;;9.07;;
44664;SDS011;30382;48.802;9.388;2022-12-07T15:16:45;17.17;;;10.23;;
44664;SDS011;30382;48.802;9.388;2022-12-07T15:19:29;17.70;;;10.20;;
44664;SDS011;30382;48.802;9.388;2022-12-07T15:22:14;16.80;;;10.87;;
44664;SDS011;30382;48.802;9.388;2022-12-07T15:24:58;17.63;;;9.50;;
44664;SDS011;30382;48.802;9.388;2022-12-07T15:27:43;20.00;;;13.27;;
44664;SDS011;30382;48.802;9.388;2022-12-07T15:30:27;24.03;;;15.93;;
44664;SDS011;30382;48.802;9.388;2022-12-07T15:33:12;18.30;;;13.40;;
44664;SDS011;30382;48.802;9.388;2022-12-07T15:35:56;17.63;;;10.60;;
44664;SDS011;30382;48.802;9.388;2022-12-07T15:38:42;22.40;;;12.07;;
44664;SDS011;30382;48.802;9.388;2022-12-07T15:41:27;16.80;;;11.17;;
44664;SDS011;30382;48.802;9.388;2022-12-07T15:44:12;13.87;;;9.70;;
44664;SDS011;30382;48.802;9.388;2022-12-07T15:47:15;17.73;;;10.63;;
44664;SDS011;30382;48.802;9.388;2022-12-07T15:49:59;24.70;;;10.60;;
44664;SDS011;30382;48.802;9.388;2022-12-07T15:52:44;14.50;;;9.60;;
44664;SDS011;30382;48.802;9.388;2022-12-07T15:55:29;14.93;;;9.43;;
44664;SDS011;30382;48.802;9.388;2022-12-07T15:58:14;16.37;;;9.30;;
44664;SDS011;30382;48.802;9.388;2022-12-07T16:00:58;13.80;;;8.93;;
44664;SDS011;30382;48.802;9.388;2022-12-07T16:03:43;17.67;;;9.27;;
44664;SDS011;30382;48.802;9.388;2022-12-07T16:06:27;16.50;;;9.70;;
44664;SDS011;30382;48.802;9.388;2022-12-07T16:09:11;12.73;;;7.63;;
44664;SDS011;30382;48.802;9.388;2022-12-07T16:11:56;15.60;;;9.63;;
44664;SDS011;30382;48.802;9.388;2022-12-07T16:14:40;10.90;;;8.63;;
44664;SDS011;30382;48.802;9.388;2022-12-07T16:17:25;12.03;;;9.10;;
44664;SDS011;30382;48.802;9.388;2022-12-07T16:20:09;15.23;;;10.43;;
44664;SDS011;30382;48.802;9.388;2022-12-07T16:22:54;15.80;;;9.57;;
44664;SDS011;30382;48.802;9.388;2022-12-07T16:25:38;17.77;;;9.80;;
44664;SDS011;30382;48.802;9.388;2022-12-07T16:28:23;18.90;;;12.10;;
44664;SDS011;30382;48.802;9.388;2022-12-07T16:31:08;18.30;;;13.80;;
44664;SDS011;30382;48.802;9.388;2022-12-07T16:33:55;18.97;;;12.33;;
44664;SDS011;30382;48.802;9.388;2022-12-07T16:36:40;20.13;;;13.90;;
44664;SDS011;30382;48.802;9.388;2022-12-07T16:39:24;15.43;;;11.90;;
44664;SDS011;30382;48.802;9.388;2022-12-07T16:42:09;18.20;;;12.60;;
44664;SDS011;30382;48.802;9.388;2022-12-07T16:44:53;15.53;;;11.33;;
44664;SDS011;30382;48.802;9.388;2022-12-07T16:47:37;25.40;;;14.30;;
44664;SDS011;30382;48.802;9.388;2022-12-07T16:50:22;26.23;;;13.83;;
44664;SDS011;30382;48.802;9.388;2022-12-07T16:53:07;16.67;;;10.63;;
44664;SDS011;30382;48.802;9.388;2022-12-07T16:55:51;15.30;;;10.30;;
44664;SDS011;30382;48.802;9.388;2022-12-07T16:58:35;12.17;;;9.33;;
44664;SDS011;30382;48.802;9.388;2022-12-07T17:01:20;13.83;;;11.23;;
44664;SDS011;30382;48.802;9.388;2022-12-07T17:04:07;17.40;;;11.83;;
44664;SDS011;30382;48.802;9.388;2022-12-07T17:06:53;16.73;;;10.77;;
44664;SDS011;30382;48.802;9.388;2022-12-07T17:09:38;14.20;;;10.17;;
44664;SDS011;30382;48.802;9.388;2022-12-07T17:12:22;13.13;;;9.07;;
44664;SDS011;30382;48.802;9.388;2022-12-07T17:15:07;16.30;;;9.90;;
44664;SDS011;30382;48.802;9.388;2022-12-07T17:18:01;16.20;;;11.93;;
44664;SDS011;30382;48.802;9.388;2022-12-07T17:20:46;14.67;;;8.47;;
44664;SDS011;30382;48.802;9.388;2022-12-07T17:23:30;12.23;;;9.43;;
44664;SDS011;30382;48.802;9.388;2022-12-07T17:26:20;14.20;;;9.13;;
44664;SDS011;30382;48.802;9.388;2022-12-07T17:29:05;12.47;;;9.10;;
44664;SDS011;30382;48.802;9.388;2022-12-07T17:31:50;14.10;;;9.33;;
44664;SDS011;30382;48.802;9.388;2022-12-07T17:34:34;11.53;;;7.97;;
44664;SDS011;30382;48.802;9.388;2022-12-07T17:37:20;11.23;;;7.43;;
44664;SDS011;30382;48.802;9.388;2022-12-07T17:40:05;12.63;;;8.50;;
44664;SDS011;30382;48.802;9.388;2022-12-07T17:42:49;9.97;;;7.40;;
44664;SDS011;30382;48.802;9.388;2022-12-07T17:45:35;14.47;;;8.93;;
44664;SDS011;30382;48.802;9.388;2022-12-07T17:48:19;11.30;;;8.20;;
44664;SDS011;30382;48.802;9.388;2022-12-07T17:51:04;9.87;;;8.33;;
44664;SDS011;30382;48.802;9.388;2022-12-07T17:54:07;13.33;;;9.00;;
44664;SDS011;30382;48.802;9.388;2022-12-07T17:56:52;12.07;;;8.70;;
44664;SDS011;30382;48.802;9.388;2022-12-07T17:59:37;22.03;;;12.93;;
44664;SDS011;30382;48.802;9.388;2022-12-07T18:02:21;22.23;;;14.10;;
44664;SDS011;30382;48.802;9.388;2022-12-07T18:05:05;23.93;;;15.03;;
44664;SDS011;30382;48.802;9.388;2022-12-07T18:07:50;18.00;;;13.17;;
44664;SDS011;30382;48.802;9.388;2022-12-07T18:10:35;17.60;;;10.87;;
44664;SDS011;30382;48.802;9.388;2022-12-07T18:13:20;22.10;;;14.83;;
44664;SDS011;30382;48.802;9.388;2022-12-07T18:16:21;18.10;;;10.67;;
44664;SDS011;30382;48.802;9.388;2022-12-07T18:19:06;16.73;;;12.07;;